Time;durP1;ratioP1;P1;durP2;ratioP2;P2;SDS_P1;SDS_P2;PMS_P1;PMS_P2;Temp;Humidity;BMP_temperature;BMP_pressure;BME280_temperature;BME280_humidity;BME280_pressure;Samples;Min_cycle;Max_cycle;Signal;HPM_P1;HPM_P2
2023/12/05 00:00:05;;;;;;;0.00;0.00;;;;;;;8.50;65.23;99991.50;5012071;28;20033;-73
2023/12/05 00:02:30;;;;;;;0.10;0.10;;;;;;;8.79;63.77;99995.41;5018399;28;20112;-72
2023/12/05 00:04:56;;;;;;;1.20;1.10;;;;;;;8.70;64.35;99985.16;4995954;28;20491;-72
2023/12/05 00:07:22;;;;;;;0.10;0.10;;;;;;;8.95;63.02;99970.81;5005057;28;20029;-72
2023/12/05 00:09:48;;;;;;;0.30;0.30;;;;;;;8.46;64.99;99987.22;4995027;28;20022;-72
2023/12/05 00:12:13;;;;;;;0.00;0.00;;;;;;;8.77;64.55;99981.53;4995767;28;20378;-72
2023/12/05 00:14:39;;;;;;;0.10;0.10;;;;;;;8.65;64.00;99975.66;5012808;28;20050;-72
2023/12/05 00:17:04;;;;;;;3.10;2.27;;;;;;;8.68;64.33;99976.47;4999904;28;20029;-72
2023/12/05 00:19:29;;;;;;;0.00;0.00;;;;;;;8.59;65.59;99975.72;5004993;28;20443;-72
2023/12/05 00:21:55;;;;;;;0.40;0.40;;;;;;;8.45;65.99;99970.75;5013818;28;20073;-72
2023/12/05 00:24:20;;;;;;;0.30;0.30;;;;;;;8.68;65.10;99972.13;5010685;28;20030;-72
2023/12/05 00:26:46;;;;;;;0.00;0.00;;;;;;;8.29;66.19;99975.25;4997281;28;20022;-72
2023/12/05 00:29:11;;;;;;;0.10;0.10;;;;;;;8.45;65.67;99965.53;5011869;28;20077;-72
2023/12/05 00:31:36;;;;;;;0.20;0.20;;;;;;;8.87;63.63;99972.69;5011383;28;20175;-73
2023/12/05 00:34:02;;;;;;;1.07;1.07;;;;;;;9.16;63.10;99963.50;4995730;28;20182;-73
2023/12/05 00:36:27;;;;;;;0.10;0.10;;;;;;;9.25;63.06;99968.53;5009378;28;20045;-73
2023/12/05 00:38:53;;;;;;;0.10;0.10;;;;;;;8.75;63.69;99968.53;5009983;28;20034;-72
2023/12/05 00:41:18;;;;;;;0.00;0.00;;;;;;;8.82;64.64;99966.69;5027494;28;20021;-72
2023/12/05 00:43:43;;;;;;;0.13;0.13;;;;;;;8.29;67.31;99967.44;5011795;28;20116;-72
2023/12/05 00:46:09;;;;;;;0.43;0.43;;;;;;;8.61;65.35;99963.56;5009636;28;20045;-72
2023/12/05 00:48:34;;;;;;;7.00;1.90;;;;;;;8.57;65.53;99964.50;5007631;28;20019;-73
2023/12/05 00:51:00;;;;;;;0.00;0.00;;;;;;;8.92;63.86;99959.59;4992088;28;20037;-73
2023/12/05 00:53:25;;;;;;;0.00;0.00;;;;;;;8.69;64.58;99962.56;5005522;28;20501;-73
2023/12/05 00:55:51;;;;;;;0.10;0.10;;;;;;;8.38;66.23;99963.00;4997015;28;20088;-72
2023/12/05 00:58:16;;;;;;;0.37;0.37;;;;;;;8.59;65.79;99965.31;5004183;28;20489;-73
2023/12/05 01:00:41;;;;;;;0.10;0.10;;;;;;;9.37;63.03;99953.53;5011311;28;20041;-72
2023/12/05 01:03:07;;;;;;;0.77;0.33;;;;;;;9.12;63.30;99972.25;5011090;28;20085;-72
2023/12/05 01:05:34;;;;;;;0.30;0.30;;;;;;;8.70;65.57;99965.16;5008125;28;20050;-71
2023/12/05 01:08:02;;;;;;;0.00;0.00;;;;;;;9.11;63.12;99962.72;5010300;28;20037;-72
2023/12/05 01:10:27;;;;;;;0.20;0.20;;;;;;;8.98;63.74;99968.16;5027558;28;20382;-73
2023/12/05 01:12:53;;;;;;;0.63;0.63;;;;;;;8.77;64.52;99955.50;5010875;28;20034;-72
2023/12/05 01:15:18;;;;;;;3.93;3.37;;;;;;;9.57;62.02;99968.81;5010217;28;20199;-73
2023/12/05 01:17:43;;;;;;;1.67;1.57;;;;;;;8.87;63.74;99972.69;5006583;28;20494;-72
2023/12/05 01:20:12;;;;;;;1.07;1.07;;;;;;;9.23;63.17;99974.66;5010984;28;20437;-72
2023/12/05 01:22:38;;;;;;;0.50;0.50;;;;;;;8.83;64.41;99971.00;5008056;28;20033;-73
2023/12/05 01:25:05;;;;;;;0.77;0.77;;;;;;;8.58;64.89;99971.41;4994765;28;20060;-72
2023/12/05 01:27:30;;;;;;;2.13;1.53;;;;;;;9.13;63.59;99972.22;5008399;28;20030;-72
2023/12/05 01:29:56;;;;;;;1.03;1.03;;;;;;;8.85;63.68;99977.06;4999939;28;20057;-72
2023/12/05 01:32:21;;;;;;;0.50;0.50;;;;;;;8.71;65.41;99977.28;4994175;28;20049;-72
2023/12/05 01:34:46;;;;;;;0.20;0.20;;;;;;;9.06;62.88;99969.78;5010302;28;20545;-72
2023/12/05 01:37:12;;;;;;;0.10;0.10;;;;;;;9.59;62.08;99973.13;5026591;28;20512;-73
2023/12/05 01:39:37;;;;;;;0.10;0.10;;;;;;;9.50;61.65;99973.31;4994977;28;20453;-73
2023/12/05 01:42:03;;;;;;;2.17;1.73;;;;;;;9.27;62.93;99977.22;5006752;28;20246;-73
2023/12/05 01:44:28;;;;;;;0.10;0.10;;;;;;;9.05;63.78;99975.88;4999851;28;20026;-73
2023/12/05 01:46:54;;;;;;;0.07;0.07;;;;;;;9.01;63.30;99980.25;5017755;28;20398;-73
2023/12/05 01:49:19;;;;;;;1.53;1.53;;;;;;;9.02;62.38;99983.75;4991187;28;20493;-73
2023/12/05 01:51:46;;;;;;;0.00;0.00;;;;;;;10.13;59.94;99979.00;4991459;28;20080;-73
2023/12/05 01:54:12;;;;;;;0.20;0.20;;;;;;;9.56;60.63;99978.41;4997829;28;20021;-72
2023/12/05 01:56:40;;;;;;;0.47;0.47;;;;;;;10.17;59.29;99981.50;4990434;28;20109;-72
2023/12/05 01:59:07;;;;;;;0.00;0.00;;;;;;;9.66;61.81;99984.31;5007231;28;20100;-73
2023/12/05 02:01:32;;;;;;;0.50;0.50;;;;;;;9.06;63.95;99978.44;4991160;28;20053;-73
2023/12/05 02:03:58;;;;;;;0.17;0.17;;;;;;;9.45;61.68;99975.13;4998973;28;20120;-73
2023/12/05 02:06:26;;;;;;;0.77;0.77;;;;;;;9.32;62.40;99985.78;4998370;28;20030;-72
2023/12/05 02:08:53;;;;;;;0.57;0.57;;;;;;;9.09;63.11;99982.75;5000114;28;20390;-73
2023/12/05 02:11:18;;;;;;;0.10;0.10;;;;;;;9.13;62.88;99989.63;5008925;28;20033;-73
2023/12/05 02:13:43;;;;;;;0.10;0.10;;;;;;;9.07;63.97;99984.53;4997806;28;20602;-73
2023/12/05 02:16:15;;;;;;;1.30;1.30;;;;;;;9.04;64.25;99995.00;5008618;28;20017;-73
2023/12/05 02:18:50;;;;;;;0.10;0.10;;;;;;;9.77;62.69;99997.16;5009373;28;20481;-73
2023/12/05 02:21:23;;;;;;;0.00;0.00;;;;;;;9.71;61.77;99987.66;5011169;28;20026;-73
2023/12/05 02:24:15;;;;;;;0.90;0.90;;;;;;;8.97;63.70;99989.91;5008909;28;20033;-72
2023/12/05 02:27:05;;;;;;;0.10;0.10;;;;;;;9.60;62.37;99985.28;5003983;28;20030;-73
2023/12/05 02:29:31;;;;;;;0.07;0.07;;;;;;;9.95;60.21;99993.31;5010405;28;20034;-73
2023/12/05 02:31:56;;;;;;;0.10;0.10;;;;;;;10.80;57.49;99989.66;5010685;28;20049;-73
2023/12/05 02:34:21;;;;;;;0.10;0.10;;;;;;;10.02;58.90;100003.56;4999604;28;20026;-73
2023/12/05 02:37:03;;;;;;;0.00;0.00;;;;;;;10.39;59.70;100001.09;4990257;28;20102;-73
2023/12/05 02:39:38;;;;;;;0.47;0.47;;;;;;;8.74;63.83;99999.84;5001243;28;20038;-73
2023/12/05 02:42:07;;;;;;;0.00;0.00;;;;;;;9.21;62.24;99999.94;5004947;28;20043;-73
2023/12/05 02:44:42;;;;;;;0.20;0.20;;;;;;;9.65;61.88;99999.09;5015056;28;20441;-73
2023/12/05 02:47:11;;;;;;;0.90;0.57;;;;;;;9.88;60.29;99992.56;4990040;28;20030;-72
2023/12/05 02:49:37;;;;;;;3.97;1.70;;;;;;;9.46;60.91;99997.72;5013465;28;20060;-73
2023/12/05 02:52:03;;;;;;;0.20;0.20;;;;;;;9.90;59.89;99993.38;5012562;28;20394;-72
2023/12/05 02:54:28;;;;;;;0.43;0.40;;;;;;;9.64;60.51;99997.38;5021728;28;20032;-72
2023/12/05 02:56:53;;;;;;;0.60;0.60;;;;;;;9.58;60.82;99992.28;4994480;28;20470;-73
2023/12/05 02:59:19;;;;;;;1.20;1.20;;;;;;;9.97;59.81;99992.38;5000156;28;20262;-72
2023/12/05 03:01:44;;;;;;;0.07;0.07;;;;;;;10.01;59.16;99986.19;5030141;28;20036;-73
2023/12/05 03:04:09;;;;;;;0.97;0.40;;;;;;;9.65;60.45;99993.88;5005508;28;20038;-73
2023/12/05 03:06:35;;;;;;;1.20;1.17;;;;;;;9.99;58.74;99998.41;4994774;28;20378;-72
2023/12/05 03:09:03;;;;;;;0.00;0.00;;;;;;;9.94;59.62;99989.81;5005473;28;20021;-73
2023/12/05 03:11:28;;;;;;;0.67;0.67;;;;;;;9.66;59.63;99990.38;5014030;28;20030;-73
2023/12/05 03:13:54;;;;;;;0.10;0.10;;;;;;;9.86;59.49;99991.72;5009232;28;20389;-73
2023/12/05 03:16:19;;;;;;;0.57;0.57;;;;;;;9.92;59.81;99996.84;5012877;28;20672;-72
2023/12/05 03:18:45;;;;;;;0.10;0.10;;;;;;;10.08;59.28;99991.28;4994012;28;20034;-73
2023/12/05 03:21:20;;;;;;;1.33;1.33;;;;;;;9.79;59.93;100000.56;5010383;28;20034;-73
2023/12/05 03:23:45;;;;;;;0.10;0.10;;;;;;;10.02;58.84;99992.28;5022413;28;20034;-72
2023/12/05 03:26:21;;;;;;;0.10;0.10;;;;;;;9.79;59.57;99996.19;5014438;28;20044;-73
2023/12/05 03:28:51;;;;;;;1.23;1.17;;;;;;;9.25;60.51;99997.22;5013167;28;20092;-72
2023/12/05 03:31:17;;;;;;;0.00;0.00;;;;;;;9.47;60.67;99999.47;5013016;28;20037;-73
2023/12/05 03:33:42;;;;;;;0.60;0.47;;;;;;;9.76;59.51;100000.66;5011261;28;20465;-72
2023/12/05 03:36:09;;;;;;;0.83;0.83;;;;;;;8.97;62.20;100000.31;5002168;28;20040;-73
2023/12/05 03:38:34;;;;;;;0.50;0.50;;;;;;;9.84;60.08;99988.28;5013088;28;20034;-73
2023/12/05 03:41:00;;;;;;;2.23;1.30;;;;;;;9.84;59.49;99986.53;5012144;28;20030;-73
2023/12/05 03:43:25;;;;;;;0.03;0.03;;;;;;;9.99;59.00;99987.13;5011241;28;20026;-73
2023/12/05 03:45:51;;;;;;;0.60;0.60;;;;;;;10.34;57.67;99988.09;5013234;28;20052;-73
2023/12/05 03:48:16;;;;;;;0.20;0.20;;;;;;;10.11;57.62;99993.81;5011180;28;20034;-73
2023/12/05 03:50:41;;;;;;;0.60;0.60;;;;;;;9.54;59.95;100001.06;5001986;28;20085;-73
2023/12/05 03:53:07;;;;;;;0.20;0.20;;;;;;;9.67;60.22;100006.88;4994244;28;20034;-73
2023/12/05 03:55:34;;;;;;;0.10;0.10;;;;;;;9.66;59.78;100000.81;5001849;28;20108;-72
2023/12/05 03:58:01;;;;;;;0.40;0.40;;;;;;;9.78;58.47;100004.06;5012944;28;20401;-73
2023/12/05 04:00:26;;;;;;;0.60;0.60;;;;;;;8.75;61.63;100004.16;5008158;28;20088;-73
2023/12/05 04:02:52;;;;;;;0.30;0.30;;;;;;;9.98;58.20;100007.13;5008384;28;20042;-72
2023/12/05 04:05:17;;;;;;;0.00;0.00;;;;;;;9.51;59.49;100011.56;4999691;28;20026;-73
2023/12/05 04:07:43;;;;;;;1.60;1.03;;;;;;;9.87;58.44;100016.94;4993420;28;20438;-73
2023/12/05 04:10:12;;;;;;;0.00;0.00;;;;;;;10.21;58.18;100013.63;4993886;28;20030;-73
2023/12/05 04:12:41;;;;;;;1.33;1.27;;;;;;;9.41;59.19;100012.59;5005736;28;20053;-73
2023/12/05 04:15:07;;;;;;;0.10;0.10;;;;;;;9.10;61.16;100020.97;5008937;28;20045;-72
2023/12/05 04:17:34;;;;;;;0.50;0.50;;;;;;;9.66;59.06;100015.63;4992341;28;20453;-73
2023/12/05 04:20:04;;;;;;;0.00;0.00;;;;;;;9.58;58.88;100015.75;4997203;28;20026;-72
2023/12/05 04:22:29;;;;;;;0.10;0.10;;;;;;;9.83;58.64;100028.34;5012187;28;20029;-73
2023/12/05 04:24:55;;;;;;;3.10;0.60;;;;;;;9.38;58.90;100015.25;4994098;28;20069;-72
2023/12/05 04:27:20;;;;;;;1.13;0.63;;;;;;;9.17;60.96;100023.44;5001085;28;20069;-73
2023/12/05 04:29:45;;;;;;;0.00;0.00;;;;;;;9.05;60.40;100030.59;4997954;28;20470;-73
2023/12/05 04:32:12;;;;;;;1.60;1.33;;;;;;;9.72;58.78;100036.38;4992505;28;20034;-73
2023/12/05 04:34:41;;;;;;;0.10;0.10;;;;;;;9.13;59.36;100031.34;4994282;28;20026;-73
2023/12/05 04:37:07;;;;;;;0.50;0.50;;;;;;;9.42;59.90;100043.00;5009716;28;20048;-72
2023/12/05 04:39:32;;;;;;;0.17;0.17;;;;;;;9.00;61.21;100047.19;4993429;28;20042;-73
2023/12/05 04:41:58;;;;;;;0.00;0.00;;;;;;;8.58;62.14;100049.56;4996467;28;20038;-73
2023/12/05 04:44:23;;;;;;;0.03;0.03;;;;;;;8.96;60.41;100049.88;4991454;28;20034;-72
2023/12/05 04:46:49;;;;;;;0.77;0.63;;;;;;;9.08;61.86;100054.00;4993506;28;20121;-72
2023/12/05 04:49:14;;;;;;;0.53;0.53;;;;;;;9.38;59.53;100057.00;4991928;28;20034;-73
2023/12/05 04:51:40;;;;;;;0.63;0.43;;;;;;;8.93;61.12;100055.13;5003721;28;20036;-73
2023/12/05 04:54:05;;;;;;;0.00;0.00;;;;;;;8.93;60.47;100062.94;5011477;28;20120;-73
2023/12/05 04:56:30;;;;;;;1.13;1.07;;;;;;;9.29;59.50;100064.09;5021170;28;20022;-72
2023/12/05 04:58:56;;;;;;;0.57;0.57;;;;;;;9.14;60.04;100060.00;5004593;28;20030;-73
2023/12/05 05:01:21;;;;;;;0.10;0.10;;;;;;;9.42;58.83;100069.09;4994903;28;20117;-74
2023/12/05 05:03:46;;;;;;;0.10;0.10;;;;;;;9.37;58.58;100065.69;4993095;28;20082;-72
2023/12/05 05:06:12;;;;;;;0.10;0.10;;;;;;;8.73;60.46;100071.06;4995230;28;20045;-73
2023/12/05 05:08:37;;;;;;;0.23;0.23;;;;;;;8.20;63.92;100074.34;5002334;28;20030;-73
2023/12/05 05:11:03;;;;;;;0.23;0.23;;;;;;;8.84;60.97;100076.97;5024612;28;20442;-73
2023/12/05 05:13:29;;;;;;;1.90;1.80;;;;;;;9.39;59.60;100077.84;4990740;28;20049;-73
2023/12/05 05:15:54;;;;;;;0.13;0.13;;;;;;;8.88;59.98;100081.25;4992254;28;20033;-73
2023/12/05 05:18:19;;;;;;;0.10;0.10;;;;;;;8.73;61.13;100078.88;5011956;28;20282;-73
2023/12/05 05:20:45;;;;;;;0.57;0.57;;;;;;;9.11;60.25;100080.06;5006107;28;20394;-72
2023/12/05 05:23:11;;;;;;;0.00;0.00;;;;;;;8.73;61.39;100082.34;4997930;28;20481;-72
2023/12/05 05:25:36;;;;;;;0.10;0.10;;;;;;;8.98;60.44;100082.84;5000558;28;20489;-73
2023/12/05 05:28:02;;;;;;;1.20;1.20;;;;;;;8.89;60.90;100085.59;5010408;28;20034;-72
2023/12/05 05:30:27;;;;;;;0.00;0.00;;;;;;;9.42;58.91;100084.75;4991327;28;20033;-73
2023/12/05 05:32:53;;;;;;;0.50;0.50;;;;;;;8.82;59.85;100090.03;5004550;28;20065;-73
2023/12/05 05:35:18;;;;;;;0.30;0.30;;;;;;;8.87;60.96;100089.09;5008039;28;20405;-73
2023/12/05 05:37:43;;;;;;;0.00;0.00;;;;;;;8.84;60.41;100087.41;5001984;28;20037;-72
2023/12/05 05:40:09;;;;;;;2.50;2.40;;;;;;;8.86;60.53;100083.03;4999031;28;20474;-72
2023/12/05 05:42:34;;;;;;;0.30;0.30;;;;;;;9.54;57.97;100084.53;5004044;28;20030;-72
2023/12/05 05:45:00;;;;;;;0.10;0.10;;;;;;;8.33;59.71;100094.13;4997616;28;20072;-73
2023/12/05 05:47:25;;;;;;;0.40;0.40;;;;;;;9.15;59.70;100086.94;5009060;28;20165;-73
2023/12/05 05:49:51;;;;;;;0.83;0.73;;;;;;;8.88;59.73;100093.44;5010500;28;20029;-73
2023/12/05 05:52:16;;;;;;;0.97;0.73;;;;;;;8.84;58.97;100092.63;4995737;28;20181;-72
2023/12/05 05:54:41;;;;;;;0.50;0.50;;;;;;;8.70;60.00;100091.97;5008374;28;20018;-73
2023/12/05 05:57:07;;;;;;;1.10;1.10;;;;;;;8.43;61.00;100101.81;5006703;28;20034;-72
2023/12/05 05:59:32;;;;;;;1.23;1.23;;;;;;;8.61;60.62;100096.41;4991093;28;20026;-72
2023/12/05 06:01:57;;;;;;;1.30;1.10;;;;;;;8.71;61.24;100101.47;4997885;28;20397;-72
2023/12/05 06:04:26;;;;;;;0.07;0.07;;;;;;;9.16;59.07;100084.31;5010507;28;20508;-73
2023/12/05 06:06:51;;;;;;;2.37;2.23;;;;;;;8.29;62.26;100095.03;5006153;28;20026;-71
2023/12/05 06:09:17;;;;;;;0.00;0.00;;;;;;;8.80;60.58;100090.94;5009194;28;20496;-73
2023/12/05 06:11:42;;;;;;;3.30;1.30;;;;;;;7.81;64.35;100099.94;5009809;28;20034;-73
2023/12/05 06:14:07;;;;;;;1.73;0.40;;;;;;;8.90;61.12;100105.56;5009989;28;20022;-72
2023/12/05 06:16:33;;;;;;;0.00;0.00;;;;;;;8.83;61.27;100106.53;4993273;28;20510;-72
2023/12/05 06:18:58;;;;;;;0.00;0.00;;;;;;;9.28;58.94;100118.88;5007932;28;20044;-73
2023/12/05 06:21:23;;;;;;;0.57;0.57;;;;;;;8.97;59.48;100119.34;5008344;28;20030;-72
2023/12/05 06:23:49;;;;;;;0.23;0.23;;;;;;;8.52;60.95;100126.91;4993686;28;20062;-73
2023/12/05 06:26:14;;;;;;;3.00;1.90;;;;;;;8.81;59.21;100121.34;5003187;28;20120;-73
2023/12/05 06:28:39;;;;;;;0.10;0.10;;;;;;;9.08;59.58;100127.88;5001817;28;20037;-73
2023/12/05 06:31:05;;;;;;;0.50;0.50;;;;;;;9.11;59.81;100121.78;5003021;28;20197;-73
2023/12/05 06:33:30;;;;;;;2.33;1.40;;;;;;;8.68;60.17;100132.78;4998019;28;20030;-73
2023/12/05 06:35:56;;;;;;;0.20;0.20;;;;;;;9.08;58.81;100127.00;4991902;28;20027;-73
2023/12/05 06:38:21;;;;;;;0.00;0.00;;;;;;;8.24;61.11;100135.91;4997634;28;20108;-73
2023/12/05 06:40:46;;;;;;;0.93;0.93;;;;;;;8.96;59.41;100139.34;4990906;28;20405;-73
2023/12/05 06:43:12;;;;;;;0.10;0.10;;;;;;;9.13;59.16;100140.84;4998571;28;20025;-73
2023/12/05 06:45:37;;;;;;;0.03;0.03;;;;;;;8.51;61.67;100141.69;5006298;28;20038;-72
2023/12/05 06:48:03;;;;;;;0.33;0.33;;;;;;;8.54;60.95;100146.84;4991046;28;20442;-72
2023/12/05 06:50:28;;;;;;;0.00;0.00;;;;;;;9.20;58.60;100150.28;4989653;28;20026;-73
2023/12/05 06:52:57;;;;;;;6.50;0.77;;;;;;;9.08;58.61;100153.97;5003018;28;20381;-73
2023/12/05 06:55:23;;;;;;;0.00;0.00;;;;;;;8.69;60.33;100169.25;5001458;28;20025;-73
2023/12/05 06:57:49;;;;;;;1.33;0.67;;;;;;;8.41;59.63;100171.31;5005529;28;20023;-73
2023/12/05 07:00:16;;;;;;;0.00;0.00;;;;;;;9.13;58.64;100178.19;4998330;28;20575;-73
2023/12/05 07:02:41;;;;;;;0.33;0.33;;;;;;;9.02;58.57;100174.03;5008328;28;20037;-73
2023/12/05 07:05:08;;;;;;;0.00;0.00;;;;;;;9.33;58.35;100179.66;4988885;28;20517;-72
2023/12/05 07:07:34;;;;;;;0.00;0.00;;;;;;;9.41;57.69;100176.94;5002569;28;20029;-71
2023/12/05 07:10:00;;;;;;;1.43;1.23;;;;;;;8.91;59.30;100188.06;5010112;28;20037;-73
2023/12/05 07:12:26;;;;;;;6.07;2.73;;;;;;;8.04;61.17;100193.41;5010147;28;20048;-73
2023/12/05 07:14:51;;;;;;;0.00;0.00;;;;;;;8.85;59.81;100192.50;4991784;28;20030;-73
2023/12/05 07:17:18;;;;;;;1.80;1.70;;;;;;;8.96;58.67;100204.53;4989785;28;20141;-72
2023/12/05 07:19:43;;;;;;;0.10;0.10;;;;;;;9.01;58.99;100204.44;5006954;28;20541;-73
2023/12/05 07:22:09;;;;;;;1.13;0.73;;;;;;;8.25;60.92;100202.72;5009185;28;20120;-72
2023/12/05 07:24:34;;;;;;;0.23;0.23;;;;;;;7.71;64.09;100210.19;4995266;28;20053;-72
2023/12/05 07:27:00;;;;;;;0.10;0.10;;;;;;;7.96;63.69;100200.41;4996582;28;20066;-73
2023/12/05 07:29:25;;;;;;;0.00;0.00;;;;;;;8.47;61.26;100207.72;4994471;28;20102;-72
2023/12/05 07:31:51;;;;;;;0.00;0.00;;;;;;;8.87;59.53;100207.25;4990317;28;20068;-73
2023/12/05 07:34:16;;;;;;;0.00;0.00;;;;;;;8.03;61.68;100212.47;4991697;28;20412;-73
2023/12/05 07:36:42;;;;;;;0.10;0.10;;;;;;;8.24;62.05;100211.44;5003162;28;20048;-72
2023/12/05 07:39:09;;;;;;;3.73;2.23;;;;;;;8.58;60.95;100221.47;5001811;28;20038;-72
2023/12/05 07:41:35;;;;;;;0.20;0.20;;;;;;;9.55;58.06;100208.91;5003010;28;20022;-73
2023/12/05 07:44:01;;;;;;;0.10;0.10;;;;;;;8.52;60.09;100221.56;5002991;28;20030;-72
2023/12/05 07:46:27;;;;;;;0.00;0.00;;;;;;;8.22;61.95;100220.97;5008341;28;20381;-73
2023/12/05 07:48:52;;;;;;;1.10;1.07;;;;;;;8.19;61.49;100222.75;5010513;28;20498;-74
2023/12/05 07:51:18;;;;;;;0.00;0.00;;;;;;;7.77;63.65;100228.31;5011503;28;20033;-73
2023/12/05 07:53:44;;;;;;;1.27;1.17;;;;;;;8.18;63.07;100232.31;5005584;28;20042;-72
2023/12/05 07:56:10;;;;;;;0.43;0.43;;;;;;;8.93;61.04;100232.34;4992688;28;20553;-73
2023/12/05 07:58:35;;;;;;;0.30;0.30;;;;;;;9.12;59.21;100238.19;5015348;28;20133;-73
2023/12/05 08:01:01;;;;;;;0.00;0.00;;;;;;;8.60;60.44;100248.41;5011811;28;20120;-73
2023/12/05 08:03:26;;;;;;;0.00;0.00;;;;;;;9.34;59.38;100243.97;5012345;28;20132;-73
2023/12/05 08:05:52;;;;;;;0.43;0.43;;;;;;;9.11;58.30;100253.00;5007084;28;20041;-73
2023/12/05 08:08:17;;;;;;;0.10;0.10;;;;;;;8.66;59.99;100261.34;5004941;28;20111;-73
2023/12/05 08:10:43;;;;;;;0.63;0.40;;;;;;;8.50;60.69;100254.56;4994197;28;20045;-72
2023/12/05 08:13:08;;;;;;;0.80;0.80;;;;;;;8.47;59.98;100262.44;5006632;28;20029;-73
2023/12/05 08:15:33;;;;;;;0.03;0.03;;;;;;;8.79;61.30;100266.41;4994794;28;20033;-73
2023/12/05 08:18:02;;;;;;;0.90;0.90;;;;;;;8.79;59.67;100269.91;4992970;28;20030;-72
2023/12/05 08:20:27;;;;;;;3.10;2.77;;;;;;;8.75;60.11;100276.03;5012599;28;20084;-72
2023/12/05 08:22:52;;;;;;;0.10;0.10;;;;;;;7.79;63.39;100276.88;5013375;28;20033;-72
2023/12/05 08:25:18;;;;;;;0.40;0.37;;;;;;;8.29;62.57;100272.09;5011844;28;20026;-72
2023/12/05 08:27:43;;;;;;;0.50;0.50;;;;;;;8.36;62.11;100277.28;4996625;28;20042;-72
2023/12/05 08:30:09;;;;;;;0.10;0.10;;;;;;;8.22;62.17;100275.66;5009201;28;20497;-72
2023/12/05 08:32:35;;;;;;;0.63;0.40;;;;;;;8.71;61.26;100291.69;5012325;28;20029;-73
2023/12/05 08:35:00;;;;;;;0.00;0.00;;;;;;;7.90;63.11;100295.03;5008841;28;20092;-72
2023/12/05 08:37:26;;;;;;;0.40;0.40;;;;;;;8.77;60.79;100294.25;5005039;28;20040;-72
2023/12/05 08:39:52;;;;;;;0.10;0.10;;;;;;;8.73;61.22;100302.97;5007670;28;20030;-73
2023/12/05 08:42:17;;;;;;;0.97;0.80;;;;;;;8.53;61.09;100292.75;5009300;28;20040;-72
2023/12/05 08:44:43;;;;;;;0.20;0.20;;;;;;;8.07;63.15;100307.03;5000141;28;20097;-73
2023/12/05 08:47:08;;;;;;;4.63;1.40;;;;;;;8.89;60.69;100304.53;4991966;28;20026;-72
2023/12/05 08:49:33;;;;;;;0.20;0.20;;;;;;;9.02;60.46;100304.38;5000624;28;20029;-72
2023/12/05 08:52:02;;;;;;;0.00;0.00;;;;;;;7.75;63.24;100313.34;5020285;28;20034;-72
2023/12/05 08:54:27;;;;;;;0.30;0.30;;;;;;;7.71;66.01;100314.25;5011787;28;20069;-72
2023/12/05 08:56:53;;;;;;;0.10;0.10;;;;;;;8.10;63.42;100310.47;5013126;28;20061;-72
2023/12/05 08:59:18;;;;;;;8.60;2.00;;;;;;;8.50;62.85;100306.66;5007290;28;20099;-72
2023/12/05 09:01:53;;;;;;;0.50;0.50;;;;;;;8.64;61.99;100316.94;5009707;28;20034;-71
2023/12/05 09:04:18;;;;;;;2.03;1.40;;;;;;;8.35;61.90;100317.22;5009882;28;20476;-72
2023/12/05 09:06:43;;;;;;;0.37;0.37;;;;;;;8.06;64.11;100323.53;4995125;28;20049;-72
2023/12/05 09:09:09;;;;;;;1.30;0.97;;;;;;;7.64;64.12;100327.28;4995344;28;20492;-72
2023/12/05 09:11:36;;;;;;;0.00;0.00;;;;;;;8.08;62.80;100327.00;5005817;28;20050;-72
2023/12/05 09:14:02;;;;;;;1.23;1.13;;;;;;;7.72;65.45;100332.44;4999759;28;20022;-72
2023/12/05 09:16:27;;;;;;;0.17;0.17;;;;;;;8.04;63.27;100333.09;4998397;28;20061;-72
2023/12/05 09:18:52;;;;;;;0.07;0.07;;;;;;;8.41;61.91;100332.78;4998947;28;20054;-72
2023/12/05 09:21:18;;;;;;;0.30;0.30;;;;;;;8.18;61.00;100336.44;5010808;28;20469;-72
2023/12/05 09:23:43;;;;;;;0.20;0.20;;;;;;;7.49;65.06;100345.56;5011940;28;20456;-72
2023/12/05 09:26:09;;;;;;;0.10;0.10;;;;;;;8.87;62.24;100342.78;5026042;28;20112;-72
2023/12/05 09:28:34;;;;;;;0.00;0.00;;;;;;;8.49;61.79;100341.44;5011365;28;20049;-71
2023/12/05 09:31:00;;;;;;;0.20;0.20;;;;;;;8.53;61.98;100345.75;5009980;28;20478;-72
2023/12/05 09:33:25;;;;;;;0.37;0.37;;;;;;;8.59;62.28;100348.28;5010077;28;20026;-72
2023/12/05 09:35:50;;;;;;;0.00;0.00;;;;;;;8.41;63.72;100358.84;5010521;28;20038;-72
2023/12/05 09:38:16;;;;;;;0.17;0.17;;;;;;;9.00;60.22;100344.38;5011670;28;20151;-73
2023/12/05 09:40:42;;;;;;;0.47;0.47;;;;;;;8.78;61.00;100358.53;5009850;28;20061;-74
2023/12/05 09:43:08;;;;;;;0.63;0.63;;;;;;;8.39;61.78;100366.63;5009764;28;20428;-72
2023/12/05 09:45:42;;;;;;;16.97;8.80;;;;;;;8.83;62.89;100361.91;5007794;28;20034;-72
2023/12/05 09:48:10;;;;;;;0.10;0.10;;;;;;;8.79;60.61;100375.88;5006072;28;20030;-72
2023/12/05 09:50:36;;;;;;;1.00;1.00;;;;;;;8.21;63.52;100379.81;5000272;28;20054;-72
2023/12/05 09:53:02;;;;;;;1.03;0.70;;;;;;;8.71;61.62;100389.00;5011425;28;20053;-72
2023/12/05 09:55:28;;;;;;;0.10;0.10;;;;;;;9.15;60.45;100378.97;5004761;28;20037;-72
2023/12/05 09:57:56;;;;;;;0.20;0.20;;;;;;;8.50;60.91;100390.03;5002925;28;20402;-72
2023/12/05 10:00:22;;;;;;;0.63;0.63;;;;;;;8.01;64.40;100395.56;5006088;28;20559;-72
2023/12/05 10:02:49;;;;;;;0.50;0.50;;;;;;;8.31;62.94;100400.56;5010234;28;20050;-72
2023/12/05 10:05:16;;;;;;;0.00;0.00;;;;;;;8.64;63.23;100398.59;5009655;28;20030;-72
2023/12/05 10:07:45;;;;;;;0.30;0.30;;;;;;;8.10;63.64;100400.72;5009751;28;20025;-72
2023/12/05 10:10:11;;;;;;;1.27;0.97;;;;;;;8.26;63.98;100404.94;5009198;28;20029;-72
2023/12/05 10:12:37;;;;;;;0.20;0.20;;;;;;;8.98;60.59;100408.72;5007370;28;20474;-72
2023/12/05 10:15:04;;;;;;;0.00;0.00;;;;;;;8.63;61.26;100414.25;4995608;28;20421;-73
2023/12/05 10:17:33;;;;;;;0.20;0.20;;;;;;;8.54;62.34;100420.38;5002494;28;20042;-73
2023/12/05 10:19:59;;;;;;;0.00;0.00;;;;;;;9.28;60.12;100411.84;4994531;28;20466;-72
2023/12/05 10:22:30;;;;;;;0.00;0.00;;;;;;;8.91;61.07;100416.59;5009357;28;20049;-72
2023/12/05 10:24:56;;;;;;;0.63;0.40;;;;;;;8.59;62.58;100421.22;5017957;28;20115;-72
2023/12/05 10:27:21;;;;;;;3.60;0.77;;;;;;;9.54;58.83;100418.50;4992105;28;20478;-72
2023/12/05 10:29:46;;;;;;;2.30;2.10;;;;;;;9.46;58.76;100422.94;4989650;28;20034;-73
2023/12/05 10:32:13;;;;;;;0.10;0.10;;;;;;;8.59;60.96;100430.78;5005293;28;20544;-72
2023/12/05 10:34:49;;;;;;;0.10;0.10;;;;;;;8.26;63.80;100428.38;5006790;28;20092;-72
2023/12/05 10:37:20;;;;;;;0.97;0.97;;;;;;;8.63;62.68;100435.09;5001256;28;20030;-72
2023/12/05 10:39:45;;;;;;;0.00;0.00;;;;;;;7.74;64.14;100434.75;5011230;28;20041;-72
2023/12/05 10:42:12;;;;;;;0.10;0.10;;;;;;;8.40;62.98;100440.44;5001014;28;20031;-73
2023/12/05 10:44:39;;;;;;;0.00;0.00;;;;;;;8.51;62.28;100440.41;5006653;28;20033;-72
2023/12/05 10:47:08;;;;;;;0.23;0.23;;;;;;;8.37;61.88;100440.47;4998718;28;20383;-72
2023/12/05 10:49:34;;;;;;;0.53;0.53;;;;;;;8.17;63.28;100444.06;4989762;28;20089;-72
2023/12/05 10:52:04;;;;;;;0.93;0.93;;;;;;;8.01;63.85;100445.91;5008640;28;20030;-72
2023/12/05 10:54:30;;;;;;;0.10;0.10;;;;;;;7.91;63.60;100452.91;5008103;28;20045;-71
2023/12/05 10:56:57;;;;;;;0.63;0.63;;;;;;;8.57;61.94;100442.94;4997282;28;20114;-72
2023/12/05 10:59:27;;;;;;;0.00;0.00;;;;;;;8.57;62.94;100448.16;4994724;28;20026;-72
2023/12/05 11:01:57;;;;;;;0.13;0.13;;;;;;;8.21;63.39;100452.72;5006318;28;20092;-71
2023/12/05 11:04:24;;;;;;;0.10;0.10;;;;;;;8.42;61.43;100454.31;5009910;28;20034;-72
2023/12/05 11:06:49;;;;;;;0.77;0.77;;;;;;;8.24;62.78;100456.19;5010073;28;20030;-72
2023/12/05 11:09:16;;;;;;;0.10;0.10;;;;;;;8.81;60.68;100450.56;5007397;28;20470;-72
2023/12/05 11:11:45;;;;;;;2.10;0.83;;;;;;;8.45;61.87;100455.19;5009244;28;20025;-72
2023/12/05 11:14:11;;;;;;;0.00;0.00;;;;;;;8.19;63.17;100457.94;5013190;28;20030;-73
2023/12/05 11:16:42;;;;;;;0.57;0.57;;;;;;;8.87;59.93;100460.06;5008863;28;20568;-72
2023/12/05 11:19:27;;;;;;;0.00;0.00;;;;;;;9.10;60.13;100459.00;5012515;28;20543;-72
2023/12/05 11:22:03;;;;;;;0.00;0.00;;;;;;;8.76;61.31;100459.28;5009103;28;20045;-72
2023/12/05 11:25:09;;;;;;;2.60;1.93;;;;;;;8.62;61.71;100452.44;4995146;28;20042;-72
2023/12/05 11:27:56;;;;;;;0.20;0.20;;;;;;;8.33;63.38;100453.50;5001780;28;20126;-72
2023/12/05 11:30:47;;;;;;;31.80;13.00;;;;;;;9.21;61.15;100451.91;5012947;28;20034;-72
2023/12/05 11:33:50;;;;;;;25.47;10.30;;;;;;;9.38;60.55;100453.47;5013081;28;20026;-72